sensor_id;sensor_type;location;lat;lon;timestamp;temperature;humidity
480;DHT22;226;48.606;9.096;2023-02-13T00:01:00;-0.50;67.30
480;DHT22;226;48.606;9.096;2023-02-13T00:03:29;-0.50;67.00
480;DHT22;226;48.606;9.096;2023-02-13T00:05:57;-0.80;69.20
480;DHT22;226;48.606;9.096;2023-02-13T00:08:25;-0.70;70.30
480;DHT22;226;48.606;9.096;2023-02-13T00:10:53;-0.80;72.50
480;DHT22;226;48.606;9.096;2023-02-13T00:13:23;0.20;74.40
480;DHT22;226;48.606;9.096;2023-02-13T00:15:55;-1.00;73.30
480;DHT22;226;48.606;9.096;2023-02-13T00:18:23;-0.40;73.50
480;DHT22;226;48.606;9.096;2023-02-13T00:20:59;-0.40;73.60
480;DHT22;226;48.606;9.096;2023-02-13T00:23:29;-0.40;73.30
480;DHT22;226;48.606;9.096;2023-02-13T00:25:59;1.40;74.20
480;DHT22;226;48.606;9.096;2023-02-13T00:28:29;-0.20;70.90
480;DHT22;226;48.606;9.096;2023-02-13T00:31:02;-0.50;70.70
480;DHT22;226;48.606;9.096;2023-02-13T00:33:31;-0.50;69.80
480;DHT22;226;48.606;9.096;2023-02-13T00:36:04;-0.20;69.20
480;DHT22;226;48.606;9.096;2023-02-13T00:38:33;-0.30;68.80
480;DHT22;226;48.606;9.096;2023-02-13T00:43:31;-0.20;64.50
480;DHT22;226;48.606;9.096;2023-02-13T00:45:59;-0.10;68.10
480;DHT22;226;48.606;9.096;2023-02-13T00:48:29;-0.20;67.00
480;DHT22;226;48.606;9.096;2023-02-13T00:50:57;-0.20;66.50
480;DHT22;226;48.606;9.096;2023-02-13T00:53:27;-0.20;65.20
480;DHT22;226;48.606;9.096;2023-02-13T00:55:55;-0.30;65.10
480;DHT22;226;48.606;9.096;2023-02-13T00:58:23;-0.30;61.50
480;DHT22;226;48.606;9.096;2023-02-13T01:00:54;0.50;62.20
480;DHT22;226;48.606;9.096;2023-02-13T01:03:22;-0.70;61.80
480;DHT22;226;48.606;9.096;2023-02-13T01:05:51;-0.20;65.60
480;DHT22;226;48.606;9.096;2023-02-13T01:08:19;-0.80;68.10
480;DHT22;226;48.606;9.096;2023-02-13T01:10:48;-0.70;70.50
480;DHT22;226;48.606;9.096;2023-02-13T01:13:17;-0.90;69.30
480;DHT22;226;48.606;9.096;2023-02-13T01:15:45;-0.40;67.80
480;DHT22;226;48.606;9.096;2023-02-13T01:18:16;-0.90;67.20
480;DHT22;226;48.606;9.096;2023-02-13T01:20:45;-0.50;66.00
480;DHT22;226;48.606;9.096;2023-02-13T01:23:22;-1.00;65.00
480;DHT22;226;48.606;9.096;2023-02-13T01:25:50;-0.90;64.90
480;DHT22;226;48.606;9.096;2023-02-13T01:28:18;-0.60;63.20
480;DHT22;226;48.606;9.096;2023-02-13T01:30:52;-0.60;62.20
480;DHT22;226;48.606;9.096;2023-02-13T01:33:22;-0.70;60.30
480;DHT22;226;48.606;9.096;2023-02-13T01:35:50;-0.90;58.60
480;DHT22;226;48.606;9.096;2023-02-13T01:38:18;-0.70;58.90
480;DHT22;226;48.606;9.096;2023-02-13T01:40:48;-1.00;58.20
480;DHT22;226;48.606;9.096;2023-02-13T01:43:16;-0.70;56.50
480;DHT22;226;48.606;9.096;2023-02-13T01:45:47;-0.60;55.40
480;DHT22;226;48.606;9.096;2023-02-13T01:48:17;-0.60;54.80
480;DHT22;226;48.606;9.096;2023-02-13T01:50:50;-0.70;52.70
480;DHT22;226;48.606;9.096;2023-02-13T01:53:24;-1.00;52.50
480;DHT22;226;48.606;9.096;2023-02-13T01:55:56;0.20;55.50
480;DHT22;226;48.606;9.096;2023-02-13T01:58:28;-1.20;56.80
480;DHT22;226;48.606;9.096;2023-02-13T02:00:58;-1.40;58.00
480;DHT22;226;48.606;9.096;2023-02-13T02:03:29;-1.40;57.80
480;DHT22;226;48.606;9.096;2023-02-13T02:06:00;-1.40;59.80
480;DHT22;226;48.606;9.096;2023-02-13T02:08:29;-1.30;61.00
480;DHT22;226;48.606;9.096;2023-02-13T02:11:04;-1.40;61.60
480;DHT22;226;48.606;9.096;2023-02-13T02:13:34;-1.30;62.20
480;DHT22;226;48.606;9.096;2023-02-13T02:16:02;-0.80;64.10
480;DHT22;226;48.606;9.096;2023-02-13T02:18:30;-0.80;64.50
480;DHT22;226;48.606;9.096;2023-02-13T02:24:31;0.00;57.80
480;DHT22;226;48.606;9.096;2023-02-13T02:27:26;-1.20;88.70
480;DHT22;226;48.606;9.096;2023-02-13T02:33:07;0.00;67.90
480;DHT22;226;48.606;9.096;2023-02-13T02:35:46;-0.90;67.20
480;DHT22;226;48.606;9.096;2023-02-13T02:38:30;-0.80;66.30
480;DHT22;226;48.606;9.096;2023-02-13T02:41:07;-0.80;61.50
480;DHT22;226;48.606;9.096;2023-02-13T02:43:46;0.90;60.60
480;DHT22;226;48.606;9.096;2023-02-13T02:46:21;-1.30;56.60
480;DHT22;226;48.606;9.096;2023-02-13T02:48:55;-1.30;61.00
480;DHT22;226;48.606;9.096;2023-02-13T02:51:47;-1.20;65.60
480;DHT22;226;48.606;9.096;2023-02-13T02:54:25;-1.30;69.30
480;DHT22;226;48.606;9.096;2023-02-13T02:59:45;-1.40;68.20
480;DHT22;226;48.606;9.096;2023-02-13T03:02:33;-1.50;72.10
480;DHT22;226;48.606;9.096;2023-02-13T03:05:21;-1.10;71.60
480;DHT22;226;48.606;9.096;2023-02-13T03:08:09;-1.10;71.30
480;DHT22;226;48.606;9.096;2023-02-13T03:10:37;-1.20;70.70
480;DHT22;226;48.606;9.096;2023-02-13T03:13:37;-1.10;68.10
480;DHT22;226;48.606;9.096;2023-02-13T03:16:11;-1.10;69.00
480;DHT22;226;48.606;9.096;2023-02-13T03:19:00;-1.00;68.40
480;DHT22;226;48.606;9.096;2023-02-13T03:21:52;-1.10;67.50
480;DHT22;226;48.606;9.096;2023-02-13T03:24:47;-1.00;67.40
480;DHT22;226;48.606;9.096;2023-02-13T03:27:25;-0.90;66.90
480;DHT22;226;48.606;9.096;2023-02-13T03:30:22;-1.20;66.90
480;DHT22;226;48.606;9.096;2023-02-13T03:33:00;-1.20;65.50
480;DHT22;226;48.606;9.096;2023-02-13T03:35:36;-0.60;65.90
480;DHT22;226;48.606;9.096;2023-02-13T03:38:28;-0.80;64.70
480;DHT22;226;48.606;9.096;2023-02-13T03:41:03;-0.90;63.30
480;DHT22;226;48.606;9.096;2023-02-13T03:43:55;-0.60;63.40
480;DHT22;226;48.606;9.096;2023-02-13T03:46:29;-0.60;62.70
480;DHT22;226;48.606;9.096;2023-02-13T03:48:58;-0.90;60.50
480;DHT22;226;48.606;9.096;2023-02-13T03:51:49;0.30;61.70
480;DHT22;226;48.606;9.096;2023-02-13T03:54:25;-1.00;58.60
480;DHT22;226;48.606;9.096;2023-02-13T03:57:15;-1.10;54.40
480;DHT22;226;48.606;9.096;2023-02-13T04:00:06;-1.30;54.10
480;DHT22;226;48.606;9.096;2023-02-13T04:02:41;-1.30;52.70
480;DHT22;226;48.606;9.096;2023-02-13T04:05:16;-1.30;56.20
480;DHT22;226;48.606;9.096;2023-02-13T04:07:46;-1.20;67.20
480;DHT22;226;48.606;9.096;2023-02-13T04:10:17;-1.50;55.80
480;DHT22;226;48.606;9.096;2023-02-13T04:12:54;-1.90;55.10
480;DHT22;226;48.606;9.096;2023-02-13T04:15:28;-1.70;56.40
480;DHT22;226;48.606;9.096;2023-02-13T04:18:05;-1.90;57.70
480;DHT22;226;48.606;9.096;2023-02-13T04:20:37;-1.50;58.20
480;DHT22;226;48.606;9.096;2023-02-13T04:23:07;-2.00;57.90
480;DHT22;226;48.606;9.096;2023-02-13T04:25:38;-1.90;57.10
480;DHT22;226;48.606;9.096;2023-02-13T04:28:06;-2.00;57.70
480;DHT22;226;48.606;9.096;2023-02-13T04:30:35;-2.20;58.80
480;DHT22;226;48.606;9.096;2023-02-13T04:33:03;-2.40;58.90
480;DHT22;226;48.606;9.096;2023-02-13T04:35:31;-2.00;58.70
480;DHT22;226;48.606;9.096;2023-02-13T04:37:59;-1.90;57.60
480;DHT22;226;48.606;9.096;2023-02-13T04:40:27;-2.00;58.70
480;DHT22;226;48.606;9.096;2023-02-13T04:42:57;-1.50;81.60
480;DHT22;226;48.606;9.096;2023-02-13T04:45:25;-1.60;58.30
480;DHT22;226;48.606;9.096;2023-02-13T04:47:55;-1.40;57.00
480;DHT22;226;48.606;9.096;2023-02-13T04:50:23;-1.30;56.40
480;DHT22;226;48.606;9.096;2023-02-13T04:52:52;-1.60;56.00
480;DHT22;226;48.606;9.096;2023-02-13T04:55:21;-1.40;56.50
480;DHT22;226;48.606;9.096;2023-02-13T04:57:51;-1.30;52.40
480;DHT22;226;48.606;9.096;2023-02-13T05:00:23;-1.60;52.50
480;DHT22;226;48.606;9.096;2023-02-13T05:02:51;-1.40;56.20
480;DHT22;226;48.606;9.096;2023-02-13T05:07:48;-1.60;64.90
480;DHT22;226;48.606;9.096;2023-02-13T05:10:16;-1.80;61.50
480;DHT22;226;48.606;9.096;2023-02-13T05:12:44;-1.80;63.30
480;DHT22;226;48.606;9.096;2023-02-13T05:15:12;-2.10;64.00
480;DHT22;226;48.606;9.096;2023-02-13T05:17:44;-2.00;65.70
480;DHT22;226;48.606;9.096;2023-02-13T05:20:13;-2.30;66.30
480;DHT22;226;48.606;9.096;2023-02-13T05:22:43;-0.80;68.60
480;DHT22;226;48.606;9.096;2023-02-13T05:25:29;-2.10;67.40
480;DHT22;226;48.606;9.096;2023-02-13T05:27:57;-1.70;67.70
480;DHT22;226;48.606;9.096;2023-02-13T05:30:25;-1.80;67.60
480;DHT22;226;48.606;9.096;2023-02-13T05:32:54;-1.80;67.70
480;DHT22;226;48.606;9.096;2023-02-13T05:35:22;-1.60;67.10
480;DHT22;226;48.606;9.096;2023-02-13T05:37:50;-1.40;67.00
480;DHT22;226;48.606;9.096;2023-02-13T05:40:18;-1.40;66.80
480;DHT22;226;48.606;9.096;2023-02-13T05:42:48;-1.30;66.90
480;DHT22;226;48.606;9.096;2023-02-13T05:45:21;-0.60;66.70
480;DHT22;226;48.606;9.096;2023-02-13T05:47:49;-1.20;66.40
480;DHT22;226;48.606;9.096;2023-02-13T05:50:18;-0.90;68.70
480;DHT22;226;48.606;9.096;2023-02-13T05:52:46;-0.70;61.80
480;DHT22;226;48.606;9.096;2023-02-13T05:55:14;-1.30;59.40
480;DHT22;226;48.606;9.096;2023-02-13T05:57:43;-1.20;58.90
480;DHT22;226;48.606;9.096;2023-02-13T06:00:12;-1.20;58.10
480;DHT22;226;48.606;9.096;2023-02-13T06:02:40;-1.30;57.30
480;DHT22;226;48.606;9.096;2023-02-13T06:05:08;-0.10;59.00
480;DHT22;226;48.606;9.096;2023-02-13T06:07:38;-1.60;58.10
480;DHT22;226;48.606;9.096;2023-02-13T06:10:07;-2.00;59.10
480;DHT22;226;48.606;9.096;2023-02-13T06:12:35;-2.10;61.00
480;DHT22;226;48.606;9.096;2023-02-13T06:15:04;-2.30;63.30
480;DHT22;226;48.606;9.096;2023-02-13T06:17:33;-2.40;65.70
480;DHT22;226;48.606;9.096;2023-02-13T06:20:01;-2.60;67.00
480;DHT22;226;48.606;9.096;2023-02-13T06:22:29;-2.70;68.00
480;DHT22;226;48.606;9.096;2023-02-13T06:24:58;-2.70;66.10
480;DHT22;226;48.606;9.096;2023-02-13T06:27:26;-2.60;66.20
480;DHT22;226;48.606;9.096;2023-02-13T06:29:54;-2.60;66.50
480;DHT22;226;48.606;9.096;2023-02-13T06:32:22;-2.40;90.20
480;DHT22;226;48.606;9.096;2023-02-13T06:34:50;-2.70;67.50
480;DHT22;226;48.606;9.096;2023-02-13T06:37:18;-2.40;65.60
480;DHT22;226;48.606;9.096;2023-02-13T06:39:46;-2.20;84.80
480;DHT22;226;48.606;9.096;2023-02-13T06:42:16;-2.20;65.60
480;DHT22;226;48.606;9.096;2023-02-13T06:44:44;-2.10;65.40
480;DHT22;226;48.606;9.096;2023-02-13T06:47:12;-2.20;65.00
480;DHT22;226;48.606;9.096;2023-02-13T06:49:41;-2.10;62.20
480;DHT22;226;48.606;9.096;2023-02-13T06:52:09;-1.90;59.40
480;DHT22;226;48.606;9.096;2023-02-13T06:54:37;-1.80;56.60
480;DHT22;226;48.606;9.096;2023-02-13T06:57:13;-1.80;55.50
480;DHT22;226;48.606;9.096;2023-02-13T06:59:43;-1.80;54.30
480;DHT22;226;48.606;9.096;2023-02-13T07:02:12;-2.00;55.60
480;DHT22;226;48.606;9.096;2023-02-13T07:04:40;-1.70;54.60
480;DHT22;226;48.606;9.096;2023-02-13T07:07:08;-1.70;54.40
480;DHT22;226;48.606;9.096;2023-02-13T07:09:36;-2.00;54.50
480;DHT22;226;48.606;9.096;2023-02-13T07:12:05;-1.60;53.30
480;DHT22;226;48.606;9.096;2023-02-13T07:14:33;-1.50;53.70
480;DHT22;226;48.606;9.096;2023-02-13T07:17:03;-1.50;54.20
480;DHT22;226;48.606;9.096;2023-02-13T07:19:31;-1.90;53.50
480;DHT22;226;48.606;9.096;2023-02-13T07:22:00;-1.40;52.40
480;DHT22;226;48.606;9.096;2023-02-13T07:24:28;-1.60;52.60
480;DHT22;226;48.606;9.096;2023-02-13T07:26:56;-1.30;51.00
480;DHT22;226;48.606;9.096;2023-02-13T07:29:24;-1.50;51.50
480;DHT22;226;48.606;9.096;2023-02-13T07:31:52;-1.20;49.90
480;DHT22;226;48.606;9.096;2023-02-13T07:34:22;-1.30;46.90
480;DHT22;226;48.606;9.096;2023-02-13T07:36:50;-1.40;48.10
480;DHT22;226;48.606;9.096;2023-02-13T07:39:18;-1.40;48.90
480;DHT22;226;48.606;9.096;2023-02-13T07:41:46;-1.40;49.60
480;DHT22;226;48.606;9.096;2023-02-13T07:44:14;-1.20;50.00
480;DHT22;226;48.606;9.096;2023-02-13T07:46:42;-1.50;52.50
480;DHT22;226;48.606;9.096;2023-02-13T07:49:11;-1.00;50.90
480;DHT22;226;48.606;9.096;2023-02-13T07:51:40;-0.90;50.90
480;DHT22;226;48.606;9.096;2023-02-13T07:54:08;-1.20;53.00
480;DHT22;226;48.606;9.096;2023-02-13T07:56:37;-0.10;53.60
480;DHT22;226;48.606;9.096;2023-02-13T07:59:05;-0.60;51.20
480;DHT22;226;48.606;9.096;2023-02-13T08:04:02;-0.60;50.60
480;DHT22;226;48.606;9.096;2023-02-13T08:06:30;-0.50;51.20
480;DHT22;226;48.606;9.096;2023-02-13T08:08:59;-0.40;51.20
480;DHT22;226;48.606;9.096;2023-02-13T08:11:45;-0.30;51.30
480;DHT22;226;48.606;9.096;2023-02-13T08:14:23;-0.20;52.00
480;DHT22;226;48.606;9.096;2023-02-13T08:16:52;-0.20;52.10
480;DHT22;226;48.606;9.096;2023-02-13T08:19:21;-0.10;52.00
480;DHT22;226;48.606;9.096;2023-02-13T08:21:49;0.00;52.30
480;DHT22;226;48.606;9.096;2023-02-13T08:24:18;0.00;52.60
480;DHT22;226;48.606;9.096;2023-02-13T08:26:46;1.60;54.30
480;DHT22;226;48.606;9.096;2023-02-13T08:29:15;-0.20;54.30
480;DHT22;226;48.606;9.096;2023-02-13T08:31:43;0.20;53.30
480;DHT22;226;48.606;9.096;2023-02-13T08:34:11;0.30;53.10
480;DHT22;226;48.606;9.096;2023-02-13T08:36:39;0.40;53.10
480;DHT22;226;48.606;9.096;2023-02-13T08:39:08;0.00;53.50
480;DHT22;226;48.606;9.096;2023-02-13T08:41:38;0.90;77.10
480;DHT22;226;48.606;9.096;2023-02-13T08:44:06;0.80;54.30
480;DHT22;226;48.606;9.096;2023-02-13T08:46:34;0.80;54.60
480;DHT22;226;48.606;9.096;2023-02-13T08:49:02;0.90;55.70
480;DHT22;226;48.606;9.096;2023-02-13T08:51:30;1.00;56.20
480;DHT22;226;48.606;9.096;2023-02-13T08:53:58;2.20;57.50
480;DHT22;226;48.606;9.096;2023-02-13T08:56:26;1.30;57.10
480;DHT22;226;48.606;9.096;2023-02-13T09:01:24;1.60;57.70
480;DHT22;226;48.606;9.096;2023-02-13T09:03:53;1.70;58.30
480;DHT22;226;48.606;9.096;2023-02-13T09:06:21;1.70;57.90
480;DHT22;226;48.606;9.096;2023-02-13T09:08:51;1.80;57.70
480;DHT22;226;48.606;9.096;2023-02-13T09:11:20;1.90;56.40
480;DHT22;226;48.606;9.096;2023-02-13T09:13:52;1.60;57.20
480;DHT22;226;48.606;9.096;2023-02-13T09:16:21;2.70;56.00
480;DHT22;226;48.606;9.096;2023-02-13T09:18:50;2.10;53.90
480;DHT22;226;48.606;9.096;2023-02-13T09:21:20;2.20;52.20
480;DHT22;226;48.606;9.096;2023-02-13T09:23:49;2.30;51.70
480;DHT22;226;48.606;9.096;2023-02-13T09:26:18;2.40;52.80
480;DHT22;226;48.606;9.096;2023-02-13T09:28:49;2.40;51.50
480;DHT22;226;48.606;9.096;2023-02-13T09:31:18;2.50;47.90
480;DHT22;226;48.606;9.096;2023-02-13T09:33:48;2.20;49.20
480;DHT22;226;48.606;9.096;2023-02-13T09:36:19;2.20;49.70
480;DHT22;226;48.606;9.096;2023-02-13T09:38:51;2.60;48.40
480;DHT22;226;48.606;9.096;2023-02-13T09:41:22;2.70;48.40
480;DHT22;226;48.606;9.096;2023-02-13T09:43:53;4.40;49.70
480;DHT22;226;48.606;9.096;2023-02-13T09:46:24;2.80;46.50
480;DHT22;226;48.606;9.096;2023-02-13T09:48:58;2.70;45.00
480;DHT22;226;48.606;9.096;2023-02-13T09:51:28;3.10;44.50
480;DHT22;226;48.606;9.096;2023-02-13T09:54:00;3.10;42.80
480;DHT22;226;48.606;9.096;2023-02-13T09:56:39;3.80;44.00
480;DHT22;226;48.606;9.096;2023-02-13T09:59:18;3.20;42.40
480;DHT22;226;48.606;9.096;2023-02-13T10:01:52;3.30;42.50
480;DHT22;226;48.606;9.096;2023-02-13T10:04:33;3.40;41.00
480;DHT22;226;48.606;9.096;2023-02-13T10:07:11;3.50;41.60
480;DHT22;226;48.606;9.096;2023-02-13T10:09:49;3.60;63.30
480;DHT22;226;48.606;9.096;2023-02-13T10:12:43;3.50;41.10
480;DHT22;226;48.606;9.096;2023-02-13T10:15:20;3.20;40.70
480;DHT22;226;48.606;9.096;2023-02-13T10:17:54;3.40;39.00
480;DHT22;226;48.606;9.096;2023-02-13T10:20:30;3.90;38.30
480;DHT22;226;48.606;9.096;2023-02-13T10:23:04;3.80;38.30
480;DHT22;226;48.606;9.096;2023-02-13T10:25:41;4.50;40.80
480;DHT22;226;48.606;9.096;2023-02-13T10:28:13;4.10;39.10
480;DHT22;226;48.606;9.096;2023-02-13T10:30:49;4.20;39.10
480;DHT22;226;48.606;9.096;2023-02-13T10:33:23;4.00;39.60
480;DHT22;226;48.606;9.096;2023-02-13T10:35:59;4.30;39.30
480;DHT22;226;48.606;9.096;2023-02-13T10:38:30;4.50;38.10
480;DHT22;226;48.606;9.096;2023-02-13T10:41:19;4.60;37.60
480;DHT22;226;48.606;9.096;2023-02-13T10:44:02;4.70;36.80
480;DHT22;226;48.606;9.096;2023-02-13T10:46:38;4.70;33.50
480;DHT22;226;48.606;9.096;2023-02-13T10:49:34;4.60;35.00
480;DHT22;226;48.606;9.096;2023-02-13T10:52:14;4.70;35.90
480;DHT22;226;48.606;9.096;2023-02-13T10:55:01;6.40;37.00
480;DHT22;226;48.606;9.096;2023-02-13T10:57:38;4.90;34.70
480;DHT22;226;48.606;9.096;2023-02-13T11:00:11;5.00;32.80
480;DHT22;226;48.606;9.096;2023-02-13T11:02:41;5.00;33.50
480;DHT22;226;48.606;9.096;2023-02-13T11:05:14;6.40;37.00
480;DHT22;226;48.606;9.096;2023-02-13T11:07:46;5.10;41.00
480;DHT22;226;48.606;9.096;2023-02-13T11:10:16;5.40;40.60
480;DHT22;226;48.606;9.096;2023-02-13T11:12:45;5.30;30.80
480;DHT22;226;48.606;9.096;2023-02-13T11:15:23;5.30;29.80
480;DHT22;226;48.606;9.096;2023-02-13T11:17:52;5.50;29.80
480;DHT22;226;48.606;9.096;2023-02-13T11:20:29;5.70;28.50
480;DHT22;226;48.606;9.096;2023-02-13T11:23:24;5.70;28.20
480;DHT22;226;48.606;9.096;2023-02-13T11:25:56;5.90;50.10
480;DHT22;226;48.606;9.096;2023-02-13T11:28:27;5.80;27.90
480;DHT22;226;48.606;9.096;2023-02-13T11:31:13;5.90;27.80
480;DHT22;226;48.606;9.096;2023-02-13T11:33:45;6.00;28.20
480;DHT22;226;48.606;9.096;2023-02-13T11:36:15;6.00;28.50
480;DHT22;226;48.606;9.096;2023-02-13T11:41:14;6.20;27.50
480;DHT22;226;48.606;9.096;2023-02-13T11:43:48;6.10;27.40
480;DHT22;226;48.606;9.096;2023-02-13T11:46:20;6.20;26.50
480;DHT22;226;48.606;9.096;2023-02-13T11:49:00;6.30;26.60
480;DHT22;226;48.606;9.096;2023-02-13T11:51:37;6.40;25.60
480;DHT22;226;48.606;9.096;2023-02-13T11:54:21;6.60;25.40
480;DHT22;226;48.606;9.096;2023-02-13T11:56:51;6.60;25.30
480;DHT22;226;48.606;9.096;2023-02-13T11:59:39;6.60;25.20
480;DHT22;226;48.606;9.096;2023-02-13T12:02:16;6.70;24.70
480;DHT22;226;48.606;9.096;2023-02-13T12:04:47;6.70;25.30
480;DHT22;226;48.606;9.096;2023-02-13T12:07:19;10.20;26.40
480;DHT22;226;48.606;9.096;2023-02-13T12:09:51;6.50;32.70
480;DHT22;226;48.606;9.096;2023-02-13T12:12:26;6.80;22.50
480;DHT22;226;48.606;9.096;2023-02-13T12:14:55;6.90;22.10
480;DHT22;226;48.606;9.096;2023-02-13T12:17:26;7.00;22.30
480;DHT22;226;48.606;9.096;2023-02-13T12:22:32;8.20;22.70
480;DHT22;226;48.606;9.096;2023-02-13T12:25:38;8.20;22.50
480;DHT22;226;48.606;9.096;2023-02-13T12:28:12;7.20;21.80
480;DHT22;226;48.606;9.096;2023-02-13T12:31:10;7.30;21.50
480;DHT22;226;48.606;9.096;2023-02-13T12:36:49;7.40;21.10
480;DHT22;226;48.606;9.096;2023-02-13T12:39:25;7.40;21.20
480;DHT22;226;48.606;9.096;2023-02-13T12:42:14;7.50;20.70
480;DHT22;226;48.606;9.096;2023-02-13T12:45:04;7.50;21.40
480;DHT22;226;48.606;9.096;2023-02-13T12:47:45;7.60;21.40
480;DHT22;226;48.606;9.096;2023-02-13T12:50:38;7.50;21.40
480;DHT22;226;48.606;9.096;2023-02-13T12:53:29;7.60;21.20
480;DHT22;226;48.606;9.096;2023-02-13T12:56:32;7.60;20.90
480;DHT22;226;48.606;9.096;2023-02-13T12:59:09;7.70;21.20
480;DHT22;226;48.606;9.096;2023-02-13T13:04:47;7.80;21.30
480;DHT22;226;48.606;9.096;2023-02-13T13:07:39;8.40;21.50
480;DHT22;226;48.606;9.096;2023-02-13T13:10:23;7.80;21.10
480;DHT22;226;48.606;9.096;2023-02-13T13:13:00;7.80;21.00
480;DHT22;226;48.606;9.096;2023-02-13T13:15:37;7.90;20.80
480;DHT22;226;48.606;9.096;2023-02-13T13:18:21;7.40;20.50
480;DHT22;226;48.606;9.096;2023-02-13T13:20:58;8.00;20.90
480;DHT22;226;48.606;9.096;2023-02-13T13:23:31;8.50;21.50
480;DHT22;226;48.606;9.096;2023-02-13T13:26:06;8.10;21.40
480;DHT22;226;48.606;9.096;2023-02-13T13:28:38;8.10;21.30
480;DHT22;226;48.606;9.096;2023-02-13T13:31:10;8.20;20.90
480;DHT22;226;48.606;9.096;2023-02-13T13:33:41;8.20;21.00
480;DHT22;226;48.606;9.096;2023-02-13T13:36:15;8.40;21.20
480;DHT22;226;48.606;9.096;2023-02-13T13:38:53;8.90;20.80
480;DHT22;226;48.606;9.096;2023-02-13T13:41:34;8.30;19.50
480;DHT22;226;48.606;9.096;2023-02-13T13:44:24;8.50;19.90
480;DHT22;226;48.606;9.096;2023-02-13T13:46:58;8.60;20.00
480;DHT22;226;48.606;9.096;2023-02-13T13:49:35;8.50;19.60
480;DHT22;226;48.606;9.096;2023-02-13T13:52:20;8.50;19.50
480;DHT22;226;48.606;9.096;2023-02-13T13:54:48;8.60;20.50
480;DHT22;226;48.606;9.096;2023-02-13T13:57:19;8.70;19.60
480;DHT22;226;48.606;9.096;2023-02-13T14:00:25;8.70;34.50
480;DHT22;226;48.606;9.096;2023-02-13T14:03:23;8.90;19.30
480;DHT22;226;48.606;9.096;2023-02-13T14:06:00;9.00;19.20
480;DHT22;226;48.606;9.096;2023-02-13T14:11:38;9.50;18.90
480;DHT22;226;48.606;9.096;2023-02-13T14:17:50;9.80;18.10
480;DHT22;226;48.606;9.096;2023-02-13T14:20:33;10.00;16.60
480;DHT22;226;48.606;9.096;2023-02-13T14:23:14;10.10;16.60
480;DHT22;226;48.606;9.096;2023-02-13T14:25:44;9.90;16.80
480;DHT22;226;48.606;9.096;2023-02-13T14:28:22;10.10;15.80
480;DHT22;226;48.606;9.096;2023-02-13T14:30:51;10.30;15.80
480;DHT22;226;48.606;9.096;2023-02-13T14:33:31;10.50;20.60
480;DHT22;226;48.606;9.096;2023-02-13T14:36:03;11.30;16.10
480;DHT22;226;48.606;9.096;2023-02-13T14:38:33;11.00;16.30
480;DHT22;226;48.606;9.096;2023-02-13T14:41:02;11.50;12.00
480;DHT22;226;48.606;9.096;2023-02-13T14:43:36;11.80;26.90
480;DHT22;226;48.606;9.096;2023-02-13T14:46:26;12.30;13.50
480;DHT22;226;48.606;9.096;2023-02-13T14:49:01;12.70;10.30
480;DHT22;226;48.606;9.096;2023-02-13T14:51:35;13.00;11.90
480;DHT22;226;48.606;9.096;2023-02-13T14:54:08;13.20;8.90
480;DHT22;226;48.606;9.096;2023-02-13T14:56:44;13.70;7.50
480;DHT22;226;48.606;9.096;2023-02-13T14:59:14;13.60;6.30
480;DHT22;226;48.606;9.096;2023-02-13T15:01:47;13.00;6.20
480;DHT22;226;48.606;9.096;2023-02-13T15:04:23;13.50;6.60
480;DHT22;226;48.606;9.096;2023-02-13T15:06:56;13.50;6.30
480;DHT22;226;48.606;9.096;2023-02-13T15:09:31;13.50;6.40
480;DHT22;226;48.606;9.096;2023-02-13T15:12:03;13.80;5.80
480;DHT22;226;48.606;9.096;2023-02-13T15:14:33;13.60;5.50
480;DHT22;226;48.606;9.096;2023-02-13T15:17:05;13.20;6.50
480;DHT22;226;48.606;9.096;2023-02-13T15:19:35;12.90;6.90
480;DHT22;226;48.606;9.096;2023-02-13T15:22:06;12.50;7.50
480;DHT22;226;48.606;9.096;2023-02-13T15:24:42;12.50;8.50
480;DHT22;226;48.606;9.096;2023-02-13T15:27:18;12.20;7.40
480;DHT22;226;48.606;9.096;2023-02-13T15:29:58;11.80;20.70
480;DHT22;226;48.606;9.096;2023-02-13T15:32:30;11.70;8.80
480;DHT22;226;48.606;9.096;2023-02-13T15:34:58;11.20;9.10
480;DHT22;226;48.606;9.096;2023-02-13T15:37:29;10.90;10.70
480;DHT22;226;48.606;9.096;2023-02-13T15:40:15;10.20;27.00
480;DHT22;226;48.606;9.096;2023-02-13T15:42:43;10.00;12.40
480;DHT22;226;48.606;9.096;2023-02-13T15:45:16;9.40;14.20
480;DHT22;226;48.606;9.096;2023-02-13T15:47:46;9.10;15.10
480;DHT22;226;48.606;9.096;2023-02-13T15:50:19;8.70;16.70
480;DHT22;226;48.606;9.096;2023-02-13T15:52:50;8.50;17.90
480;DHT22;226;48.606;9.096;2023-02-13T15:55:21;8.50;17.90
480;DHT22;226;48.606;9.096;2023-02-13T15:57:50;8.30;18.50
480;DHT22;226;48.606;9.096;2023-02-13T16:00:24;8.20;20.00
480;DHT22;226;48.606;9.096;2023-02-13T16:02:54;8.10;20.20
480;DHT22;226;48.606;9.096;2023-02-13T16:11:21;7.90;21.80
480;DHT22;226;48.606;9.096;2023-02-13T16:14:13;7.70;20.20
480;DHT22;226;48.606;9.096;2023-02-13T16:16:46;7.70;20.70
480;DHT22;226;48.606;9.096;2023-02-13T16:19:30;7.70;21.20
480;DHT22;226;48.606;9.096;2023-02-13T16:22:02;7.50;21.40
480;DHT22;226;48.606;9.096;2023-02-13T16:24:30;7.40;21.50
480;DHT22;226;48.606;9.096;2023-02-13T16:27:00;7.30;21.90
480;DHT22;226;48.606;9.096;2023-02-13T16:29:28;7.30;22.30
480;DHT22;226;48.606;9.096;2023-02-13T16:32:11;7.20;22.70
480;DHT22;226;48.606;9.096;2023-02-13T16:34:44;7.00;22.50
480;DHT22;226;48.606;9.096;2023-02-13T16:37:28;7.00;23.20
480;DHT22;226;48.606;9.096;2023-02-13T16:40:38;6.90;23.40
480;DHT22;226;48.606;9.096;2023-02-13T16:43:36;6.80;23.70
480;DHT22;226;48.606;9.096;2023-02-13T16:46:29;6.70;23.80
480;DHT22;226;48.606;9.096;2023-02-13T16:49:18;6.40;22.80
480;DHT22;226;48.606;9.096;2023-02-13T16:51:53;5.90;24.50
480;DHT22;226;48.606;9.096;2023-02-13T16:54:30;5.10;29.10
480;DHT22;226;48.606;9.096;2023-02-13T16:57:01;5.00;28.30
480;DHT22;226;48.606;9.096;2023-02-13T16:59:38;4.50;29.80
480;DHT22;226;48.606;9.096;2023-02-13T17:02:20;4.20;31.40
480;DHT22;226;48.606;9.096;2023-02-13T17:04:51;3.90;33.40
480;DHT22;226;48.606;9.096;2023-02-13T17:07:22;3.70;34.30
480;DHT22;226;48.606;9.096;2023-02-13T17:09:52;3.90;34.90
480;DHT22;226;48.606;9.096;2023-02-13T17:12:21;3.60;35.90
480;DHT22;226;48.606;9.096;2023-02-13T17:14:51;3.60;36.20
480;DHT22;226;48.606;9.096;2023-02-13T17:17:21;3.50;36.70
480;DHT22;226;48.606;9.096;2023-02-13T17:19:49;3.30;36.60
480;DHT22;226;48.606;9.096;2023-02-13T17:22:27;3.10;38.40
480;DHT22;226;48.606;9.096;2023-02-13T17:24:57;2.90;41.90
480;DHT22;226;48.606;9.096;2023-02-13T17:27:25;2.90;42.90
480;DHT22;226;48.606;9.096;2023-02-13T17:29:55;2.80;44.30
480;DHT22;226;48.606;9.096;2023-02-13T17:32:25;2.80;43.90
480;DHT22;226;48.606;9.096;2023-02-13T17:34:53;2.80;43.20
480;DHT22;226;48.606;9.096;2023-02-13T17:37:23;3.10;44.00
480;DHT22;226;48.606;9.096;2023-02-13T17:39:52;2.40;41.80
480;DHT22;226;48.606;9.096;2023-02-13T17:42:23;2.50;41.50
480;DHT22;226;48.606;9.096;2023-02-13T17:44:52;2.20;41.70
480;DHT22;226;48.606;9.096;2023-02-13T17:47:22;2.00;43.10
480;DHT22;226;48.606;9.096;2023-02-13T17:49:51;1.70;45.00
480;DHT22;226;48.606;9.096;2023-02-13T17:52:29;1.90;46.10
480;DHT22;226;48.606;9.096;2023-02-13T17:54:58;2.00;46.70
480;DHT22;226;48.606;9.096;2023-02-13T17:57:26;2.10;46.90
480;DHT22;226;48.606;9.096;2023-02-13T17:59:54;2.10;45.70
480;DHT22;226;48.606;9.096;2023-02-13T18:02:24;1.90;45.70
480;DHT22;226;48.606;9.096;2023-02-13T18:04:52;1.70;47.00
480;DHT22;226;48.606;9.096;2023-02-13T18:07:21;2.20;49.30
480;DHT22;226;48.606;9.096;2023-02-13T18:09:49;1.30;47.90